sensor_id;sensor_type;location;lat;lon;timestamp;temperature;humidity
19292;DHT22;9779;51.756;7.450;2022-08-19T00:01:33;21.00;99.90
19292;DHT22;9779;51.756;7.450;2022-08-19T00:04:02;20.90;99.90
19292;DHT22;9779;51.756;7.450;2022-08-19T00:06:29;20.90;99.90
19292;DHT22;9779;51.756;7.450;2022-08-19T00:08:56;20.90;99.90
19292;DHT22;9779;51.756;7.450;2022-08-19T00:11:22;20.90;99.90
19292;DHT22;9779;51.756;7.450;2022-08-19T00:13:48;20.90;99.90
19292;DHT22;9779;51.756;7.450;2022-08-19T00:16:16;20.80;99.90
19292;DHT22;9779;51.756;7.450;2022-08-19T00:18:43;20.80;99.90
19292;DHT22;9779;51.756;7.450;2022-08-19T00:21:09;20.70;99.90
19292;DHT22;9779;51.756;7.450;2022-08-19T00:23:35;20.80;99.90
19292;DHT22;9779;51.756;7.450;2022-08-19T00:26:03;20.70;99.90
19292;DHT22;9779;51.756;7.450;2022-08-19T00:28:29;20.70;99.90
19292;DHT22;9779;51.756;7.450;2022-08-19T00:30:55;20.60;99.90
19292;DHT22;9779;51.756;7.450;2022-08-19T00:33:21;20.60;99.90
19292;DHT22;9779;51.756;7.450;2022-08-19T00:35:47;20.60;99.90
19292;DHT22;9779;51.756;7.450;2022-08-19T00:38:12;20.50;99.90
19292;DHT22;9779;51.756;7.450;2022-08-19T00:40:38;20.50;99.90
19292;DHT22;9779;51.756;7.450;2022-08-19T00:43:10;20.50;99.90
19292;DHT22;9779;51.756;7.450;2022-08-19T00:45:38;20.50;99.90
19292;DHT22;9779;51.756;7.450;2022-08-19T00:48:07;20.40;99.90
19292;DHT22;9779;51.756;7.450;2022-08-19T00:50:33;20.50;99.90
19292;DHT22;9779;51.756;7.450;2022-08-19T00:52:59;20.40;99.90
19292;DHT22;9779;51.756;7.450;2022-08-19T00:55:26;20.40;99.90
19292;DHT22;9779;51.756;7.450;2022-08-19T00:58:08;20.40;99.90
19292;DHT22;9779;51.756;7.450;2022-08-19T01:00:36;20.30;99.90
19292;DHT22;9779;51.756;7.450;2022-08-19T01:03:12;20.30;99.90
19292;DHT22;9779;51.756;7.450;2022-08-19T01:05:39;20.30;99.90
19292;DHT22;9779;51.756;7.450;2022-08-19T01:08:06;20.20;99.90
19292;DHT22;9779;51.756;7.450;2022-08-19T01:10:43;20.20;99.90
19292;DHT22;9779;51.756;7.450;2022-08-19T01:13:10;20.20;99.90
19292;DHT22;9779;51.756;7.450;2022-08-19T01:15:44;20.20;99.90
19292;DHT22;9779;51.756;7.450;2022-08-19T01:18:13;20.10;99.90
19292;DHT22;9779;51.756;7.450;2022-08-19T01:20:41;20.10;99.90
19292;DHT22;9779;51.756;7.450;2022-08-19T01:23:07;20.00;99.90
19292;DHT22;9779;51.756;7.450;2022-08-19T01:25:50;20.00;99.90
19292;DHT22;9779;51.756;7.450;2022-08-19T01:28:18;19.90;99.90
19292;DHT22;9779;51.756;7.450;2022-08-19T01:30:44;19.80;99.90
19292;DHT22;9779;51.756;7.450;2022-08-19T01:33:10;19.80;99.90
19292;DHT22;9779;51.756;7.450;2022-08-19T01:35:36;19.80;99.90
19292;DHT22;9779;51.756;7.450;2022-08-19T01:38:05;19.80;99.90
19292;DHT22;9779;51.756;7.450;2022-08-19T01:40:35;19.80;99.90
19292;DHT22;9779;51.756;7.450;2022-08-19T01:43:02;19.70;99.90
19292;DHT22;9779;51.756;7.450;2022-08-19T01:45:30;19.70;99.90
19292;DHT22;9779;51.756;7.450;2022-08-19T01:47:57;19.70;99.90
19292;DHT22;9779;51.756;7.450;2022-08-19T01:50:23;19.70;99.90
19292;DHT22;9779;51.756;7.450;2022-08-19T01:52:48;19.60;99.90
19292;DHT22;9779;51.756;7.450;2022-08-19T01:55:17;19.60;99.90
19292;DHT22;9779;51.756;7.450;2022-08-19T01:57:47;19.60;99.90
19292;DHT22;9779;51.756;7.450;2022-08-19T02:00:18;19.50;99.90
19292;DHT22;9779;51.756;7.450;2022-08-19T02:02:44;19.50;99.90
19292;DHT22;9779;51.756;7.450;2022-08-19T02:05:11;19.50;99.90
19292;DHT22;9779;51.756;7.450;2022-08-19T02:07:38;19.50;99.90
19292;DHT22;9779;51.756;7.450;2022-08-19T02:10:10;19.40;99.90
19292;DHT22;9779;51.756;7.450;2022-08-19T02:12:35;19.40;99.90
19292;DHT22;9779;51.756;7.450;2022-08-19T02:15:02;19.40;99.90
19292;DHT22;9779;51.756;7.450;2022-08-19T02:17:29;19.30;99.90
19292;DHT22;9779;51.756;7.450;2022-08-19T02:19:55;19.30;99.90
19292;DHT22;9779;51.756;7.450;2022-08-19T02:22:22;19.30;99.90
19292;DHT22;9779;51.756;7.450;2022-08-19T02:24:47;19.30;99.90
19292;DHT22;9779;51.756;7.450;2022-08-19T02:27:14;19.30;99.90
19292;DHT22;9779;51.756;7.450;2022-08-19T02:29:40;19.30;99.90
19292;DHT22;9779;51.756;7.450;2022-08-19T02:32:06;19.30;99.90
19292;DHT22;9779;51.756;7.450;2022-08-19T02:34:33;19.20;99.90
19292;DHT22;9779;51.756;7.450;2022-08-19T02:36:58;19.20;99.90
19292;DHT22;9779;51.756;7.450;2022-08-19T02:39:24;19.20;99.90
19292;DHT22;9779;51.756;7.450;2022-08-19T02:41:49;19.10;99.90
19292;DHT22;9779;51.756;7.450;2022-08-19T02:44:16;19.10;99.90
19292;DHT22;9779;51.756;7.450;2022-08-19T02:46:42;19.10;99.90
19292;DHT22;9779;51.756;7.450;2022-08-19T02:49:08;19.10;99.90
19292;DHT22;9779;51.756;7.450;2022-08-19T02:51:40;19.10;99.90
19292;DHT22;9779;51.756;7.450;2022-08-19T02:54:08;19.10;99.90
19292;DHT22;9779;51.756;7.450;2022-08-19T02:56:36;19.10;99.90
19292;DHT22;9779;51.756;7.450;2022-08-19T02:59:03;19.00;99.90
19292;DHT22;9779;51.756;7.450;2022-08-19T03:01:33;19.00;99.90
19292;DHT22;9779;51.756;7.450;2022-08-19T03:04:04;18.90;99.90
19292;DHT22;9779;51.756;7.450;2022-08-19T03:06:30;18.90;99.90
19292;DHT22;9779;51.756;7.450;2022-08-19T03:08:56;18.90;99.90
19292;DHT22;9779;51.756;7.450;2022-08-19T03:11:26;18.90;99.90
19292;DHT22;9779;51.756;7.450;2022-08-19T03:13:52;18.90;99.90
19292;DHT22;9779;51.756;7.450;2022-08-19T03:16:19;18.90;99.90
19292;DHT22;9779;51.756;7.450;2022-08-19T03:18:45;18.90;99.90
19292;DHT22;9779;51.756;7.450;2022-08-19T03:21:21;18.80;99.90
19292;DHT22;9779;51.756;7.450;2022-08-19T03:23:49;18.80;99.90
19292;DHT22;9779;51.756;7.450;2022-08-19T03:26:14;18.80;99.90
19292;DHT22;9779;51.756;7.450;2022-08-19T03:28:41;18.80;99.90
19292;DHT22;9779;51.756;7.450;2022-08-19T03:31:11;18.80;99.90
19292;DHT22;9779;51.756;7.450;2022-08-19T03:33:37;18.80;99.90
19292;DHT22;9779;51.756;7.450;2022-08-19T03:38:33;18.70;99.90
19292;DHT22;9779;51.756;7.450;2022-08-19T03:41:03;18.70;99.90
19292;DHT22;9779;51.756;7.450;2022-08-19T03:43:32;18.70;99.90
19292;DHT22;9779;51.756;7.450;2022-08-19T03:46:04;18.60;99.90
19292;DHT22;9779;51.756;7.450;2022-08-19T03:48:30;18.60;99.90
19292;DHT22;9779;51.756;7.450;2022-08-19T03:50:56;18.60;99.90
19292;DHT22;9779;51.756;7.450;2022-08-19T03:53:23;18.60;99.90
19292;DHT22;9779;51.756;7.450;2022-08-19T03:55:49;18.60;99.90
19292;DHT22;9779;51.756;7.450;2022-08-19T03:58:14;18.60;99.90
19292;DHT22;9779;51.756;7.450;2022-08-19T04:00:42;18.60;99.90
19292;DHT22;9779;51.756;7.450;2022-08-19T04:03:08;18.50;99.90
19292;DHT22;9779;51.756;7.450;2022-08-19T04:05:34;18.50;99.90
19292;DHT22;9779;51.756;7.450;2022-08-19T04:08:00;18.50;99.90
19292;DHT22;9779;51.756;7.450;2022-08-19T04:10:26;18.50;99.90
19292;DHT22;9779;51.756;7.450;2022-08-19T04:12:52;18.30;99.90
19292;DHT22;9779;51.756;7.450;2022-08-19T04:17:45;18.20;99.90
19292;DHT22;9779;51.756;7.450;2022-08-19T04:20:11;18.20;99.90
19292;DHT22;9779;51.756;7.450;2022-08-19T04:22:37;18.20;99.90
19292;DHT22;9779;51.756;7.450;2022-08-19T04:25:03;18.30;99.90
19292;DHT22;9779;51.756;7.450;2022-08-19T04:27:28;18.20;99.90
19292;DHT22;9779;51.756;7.450;2022-08-19T04:29:54;18.30;99.90
19292;DHT22;9779;51.756;7.450;2022-08-19T04:32:20;18.20;99.90
19292;DHT22;9779;51.756;7.450;2022-08-19T04:34:46;18.20;99.90
19292;DHT22;9779;51.756;7.450;2022-08-19T04:37:12;18.20;99.90
19292;DHT22;9779;51.756;7.450;2022-08-19T04:39:37;18.20;99.90
19292;DHT22;9779;51.756;7.450;2022-08-19T04:42:22;18.10;99.90
19292;DHT22;9779;51.756;7.450;2022-08-19T04:45:11;18.10;99.90
19292;DHT22;9779;51.756;7.450;2022-08-19T04:47:40;18.10;99.90
19292;DHT22;9779;51.756;7.450;2022-08-19T04:50:07;18.10;99.90
19292;DHT22;9779;51.756;7.450;2022-08-19T04:52:40;18.10;99.90
19292;DHT22;9779;51.756;7.450;2022-08-19T04:55:12;18.10;99.90
19292;DHT22;9779;51.756;7.450;2022-08-19T04:57:38;18.10;99.90
19292;DHT22;9779;51.756;7.450;2022-08-19T05:00:10;18.00;99.90
19292;DHT22;9779;51.756;7.450;2022-08-19T05:02:36;17.90;99.90
19292;DHT22;9779;51.756;7.450;2022-08-19T05:05:03;18.00;99.90
19292;DHT22;9779;51.756;7.450;2022-08-19T05:07:28;18.00;99.90
19292;DHT22;9779;51.756;7.450;2022-08-19T05:09:54;18.00;99.90
19292;DHT22;9779;51.756;7.450;2022-08-19T05:12:20;18.00;99.90
19292;DHT22;9779;51.756;7.450;2022-08-19T05:14:46;18.00;99.90
19292;DHT22;9779;51.756;7.450;2022-08-19T05:17:13;18.00;99.90
19292;DHT22;9779;51.756;7.450;2022-08-19T05:19:38;18.00;99.90
19292;DHT22;9779;51.756;7.450;2022-08-19T05:22:22;18.00;99.90
19292;DHT22;9779;51.756;7.450;2022-08-19T05:24:57;18.00;99.90
19292;DHT22;9779;51.756;7.450;2022-08-19T05:27:23;18.00;99.90
19292;DHT22;9779;51.756;7.450;2022-08-19T05:29:48;18.10;99.90
19292;DHT22;9779;51.756;7.450;2022-08-19T05:32:14;18.10;99.90
19292;DHT22;9779;51.756;7.450;2022-08-19T05:34:40;18.10;99.90
19292;DHT22;9779;51.756;7.450;2022-08-19T05:37:06;18.10;99.90
19292;DHT22;9779;51.756;7.450;2022-08-19T05:39:35;18.10;99.90
19292;DHT22;9779;51.756;7.450;2022-08-19T05:42:08;18.10;99.90
19292;DHT22;9779;51.756;7.450;2022-08-19T05:44:37;18.20;99.90
19292;DHT22;9779;51.756;7.450;2022-08-19T05:47:05;18.20;99.90
19292;DHT22;9779;51.756;7.450;2022-08-19T05:49:32;18.10;99.90
19292;DHT22;9779;51.756;7.450;2022-08-19T05:51:58;18.10;99.90
19292;DHT22;9779;51.756;7.450;2022-08-19T05:54:26;18.10;99.90
19292;DHT22;9779;51.756;7.450;2022-08-19T05:56:53;18.10;99.90
19292;DHT22;9779;51.756;7.450;2022-08-19T05:59:20;18.10;99.90
19292;DHT22;9779;51.756;7.450;2022-08-19T06:01:47;18.20;99.90
19292;DHT22;9779;51.756;7.450;2022-08-19T06:04:16;18.20;99.90
19292;DHT22;9779;51.756;7.450;2022-08-19T06:06:44;18.30;99.90
19292;DHT22;9779;51.756;7.450;2022-08-19T06:09:10;18.30;99.90
19292;DHT22;9779;51.756;7.450;2022-08-19T06:11:41;18.40;99.90
19292;DHT22;9779;51.756;7.450;2022-08-19T06:14:11;18.40;99.90
19292;DHT22;9779;51.756;7.450;2022-08-19T06:16:38;18.50;99.90
19292;DHT22;9779;51.756;7.450;2022-08-19T06:19:07;18.50;99.90
19292;DHT22;9779;51.756;7.450;2022-08-19T06:21:35;18.60;99.90
19292;DHT22;9779;51.756;7.450;2022-08-19T06:24:06;18.60;99.90
19292;DHT22;9779;51.756;7.450;2022-08-19T06:26:34;18.70;99.90
19292;DHT22;9779;51.756;7.450;2022-08-19T06:29:00;18.70;99.90
19292;DHT22;9779;51.756;7.450;2022-08-19T06:31:27;18.70;99.90
19292;DHT22;9779;51.756;7.450;2022-08-19T06:33:53;18.80;99.90
19292;DHT22;9779;51.756;7.450;2022-08-19T06:36:28;18.80;99.90
19292;DHT22;9779;51.756;7.450;2022-08-19T06:38:55;18.90;99.90
19292;DHT22;9779;51.756;7.450;2022-08-19T06:41:22;19.00;99.90
19292;DHT22;9779;51.756;7.450;2022-08-19T06:43:48;19.10;99.90
19292;DHT22;9779;51.756;7.450;2022-08-19T06:46:15;19.20;99.90
19292;DHT22;9779;51.756;7.450;2022-08-19T06:48:41;19.20;99.90
19292;DHT22;9779;51.756;7.450;2022-08-19T06:51:07;19.30;99.90
19292;DHT22;9779;51.756;7.450;2022-08-19T06:53:33;19.30;99.90
19292;DHT22;9779;51.756;7.450;2022-08-19T06:55:59;19.40;99.90
19292;DHT22;9779;51.756;7.450;2022-08-19T06:58:29;19.40;99.90
19292;DHT22;9779;51.756;7.450;2022-08-19T07:00:59;19.50;99.90
19292;DHT22;9779;51.756;7.450;2022-08-19T07:03:27;19.50;99.90
19292;DHT22;9779;51.756;7.450;2022-08-19T07:05:53;19.50;99.90
19292;DHT22;9779;51.756;7.450;2022-08-19T07:08:19;19.50;99.90
19292;DHT22;9779;51.756;7.450;2022-08-19T07:10:45;19.60;99.90
19292;DHT22;9779;51.756;7.450;2022-08-19T07:13:11;19.60;99.90
19292;DHT22;9779;51.756;7.450;2022-08-19T07:15:37;19.70;99.90
19292;DHT22;9779;51.756;7.450;2022-08-19T07:18:03;19.70;99.90
19292;DHT22;9779;51.756;7.450;2022-08-19T07:20:28;19.80;99.90
19292;DHT22;9779;51.756;7.450;2022-08-19T07:22:54;19.80;99.90
19292;DHT22;9779;51.756;7.450;2022-08-19T07:25:20;19.90;99.90
19292;DHT22;9779;51.756;7.450;2022-08-19T07:27:48;19.90;99.90
19292;DHT22;9779;51.756;7.450;2022-08-19T07:30:14;20.00;99.90
19292;DHT22;9779;51.756;7.450;2022-08-19T07:32:40;20.00;99.90
19292;DHT22;9779;51.756;7.450;2022-08-19T07:35:06;20.20;99.90
19292;DHT22;9779;51.756;7.450;2022-08-19T07:37:32;20.30;99.90
19292;DHT22;9779;51.756;7.450;2022-08-19T07:39:57;20.30;99.90
19292;DHT22;9779;51.756;7.450;2022-08-19T07:42:23;20.30;99.90
19292;DHT22;9779;51.756;7.450;2022-08-19T07:44:48;20.30;99.90
19292;DHT22;9779;51.756;7.450;2022-08-19T07:47:14;20.30;99.90
19292;DHT22;9779;51.756;7.450;2022-08-19T07:49:40;20.30;99.90
19292;DHT22;9779;51.756;7.450;2022-08-19T07:52:08;20.30;99.90
19292;DHT22;9779;51.756;7.450;2022-08-19T07:54:36;20.40;99.90
19292;DHT22;9779;51.756;7.450;2022-08-19T07:57:03;20.50;99.90
19292;DHT22;9779;51.756;7.450;2022-08-19T07:59:29;20.50;99.90
19292;DHT22;9779;51.756;7.450;2022-08-19T08:01:56;20.60;99.90
19292;DHT22;9779;51.756;7.450;2022-08-19T08:04:22;20.70;99.90
19292;DHT22;9779;51.756;7.450;2022-08-19T08:07:07;20.80;99.90
19292;DHT22;9779;51.756;7.450;2022-08-19T08:09:52;20.90;99.90
19292;DHT22;9779;51.756;7.450;2022-08-19T08:12:22;21.00;99.90
19292;DHT22;9779;51.756;7.450;2022-08-19T08:14:53;21.10;99.90
19292;DHT22;9779;51.756;7.450;2022-08-19T08:17:23;21.10;99.90
19292;DHT22;9779;51.756;7.450;2022-08-19T08:19:49;21.10;99.90
19292;DHT22;9779;51.756;7.450;2022-08-19T08:22:19;21.20;99.90
19292;DHT22;9779;51.756;7.450;2022-08-19T08:25:13;21.30;99.90
19292;DHT22;9779;51.756;7.450;2022-08-19T08:27:41;21.50;99.90
19292;DHT22;9779;51.756;7.450;2022-08-19T08:30:09;21.60;99.90
19292;DHT22;9779;51.756;7.450;2022-08-19T08:32:37;21.60;99.90
19292;DHT22;9779;51.756;7.450;2022-08-19T08:35:04;21.70;99.90
19292;DHT22;9779;51.756;7.450;2022-08-19T08:37:30;21.70;99.90
19292;DHT22;9779;51.756;7.450;2022-08-19T08:39:56;21.80;99.90
19292;DHT22;9779;51.756;7.450;2022-08-19T08:42:34;21.80;99.90
19292;DHT22;9779;51.756;7.450;2022-08-19T08:45:08;21.90;99.90
19292;DHT22;9779;51.756;7.450;2022-08-19T08:47:41;22.00;99.90
19292;DHT22;9779;51.756;7.450;2022-08-19T08:50:23;22.00;99.90
19292;DHT22;9779;51.756;7.450;2022-08-19T08:52:53;22.20;99.90
19292;DHT22;9779;51.756;7.450;2022-08-19T08:55:23;22.30;99.90
19292;DHT22;9779;51.756;7.450;2022-08-19T09:00:38;22.70;99.90
19292;DHT22;9779;51.756;7.450;2022-08-19T09:03:30;22.90;99.90
19292;DHT22;9779;51.756;7.450;2022-08-19T09:06:04;23.00;99.90
19292;DHT22;9779;51.756;7.450;2022-08-19T09:16:56;23.40;99.90
19292;DHT22;9779;51.756;7.450;2022-08-19T09:19:22;23.40;99.90
19292;DHT22;9779;51.756;7.450;2022-08-19T09:21:48;23.40;99.90
19292;DHT22;9779;51.756;7.450;2022-08-19T09:24:14;23.30;99.90
19292;DHT22;9779;51.756;7.450;2022-08-19T09:26:40;23.20;99.90
19292;DHT22;9779;51.756;7.450;2022-08-19T09:29:05;23.10;99.90
19292;DHT22;9779;51.756;7.450;2022-08-19T09:31:32;23.10;99.90
19292;DHT22;9779;51.756;7.450;2022-08-19T09:33:58;23.10;99.90
19292;DHT22;9779;51.756;7.450;2022-08-19T09:36:26;23.30;99.90
19292;DHT22;9779;51.756;7.450;2022-08-19T09:38:55;23.60;99.90
19292;DHT22;9779;51.756;7.450;2022-08-19T09:41:22;23.80;99.90
19292;DHT22;9779;51.756;7.450;2022-08-19T09:43:50;23.90;99.90
19292;DHT22;9779;51.756;7.450;2022-08-19T09:46:21;23.80;99.90
19292;DHT22;9779;51.756;7.450;2022-08-19T09:48:48;23.80;99.90
19292;DHT22;9779;51.756;7.450;2022-08-19T09:51:21;23.80;99.90
19292;DHT22;9779;51.756;7.450;2022-08-19T09:53:49;23.80;99.90
19292;DHT22;9779;51.756;7.450;2022-08-19T09:56:20;23.90;99.90
19292;DHT22;9779;51.756;7.450;2022-08-19T09:58:46;23.90;99.90
19292;DHT22;9779;51.756;7.450;2022-08-19T10:01:24;23.80;99.90
19292;DHT22;9779;51.756;7.450;2022-08-19T10:03:52;23.80;99.90
19292;DHT22;9779;51.756;7.450;2022-08-19T10:06:20;23.70;99.90
19292;DHT22;9779;51.756;7.450;2022-08-19T10:08:47;23.70;99.90
19292;DHT22;9779;51.756;7.450;2022-08-19T10:11:13;23.80;99.90
19292;DHT22;9779;51.756;7.450;2022-08-19T10:13:41;24.10;99.90
19292;DHT22;9779;51.756;7.450;2022-08-19T10:16:10;24.30;99.90
19292;DHT22;9779;51.756;7.450;2022-08-19T10:18:37;24.60;99.90
19292;DHT22;9779;51.756;7.450;2022-08-19T10:21:08;24.70;99.90
19292;DHT22;9779;51.756;7.450;2022-08-19T10:23:36;24.70;99.90
19292;DHT22;9779;51.756;7.450;2022-08-19T10:26:04;24.80;99.90
19292;DHT22;9779;51.756;7.450;2022-08-19T10:28:32;24.80;99.90
19292;DHT22;9779;51.756;7.450;2022-08-19T10:30:57;25.00;99.90
19292;DHT22;9779;51.756;7.450;2022-08-19T10:33:24;25.20;99.90
19292;DHT22;9779;51.756;7.450;2022-08-19T10:35:59;25.20;99.90
19292;DHT22;9779;51.756;7.450;2022-08-19T10:38:25;25.20;99.90
19292;DHT22;9779;51.756;7.450;2022-08-19T10:40:50;25.10;99.90
19292;DHT22;9779;51.756;7.450;2022-08-19T10:43:16;24.90;99.90
19292;DHT22;9779;51.756;7.450;2022-08-19T10:45:42;25.10;99.90
19292;DHT22;9779;51.756;7.450;2022-08-19T10:48:08;25.20;99.90
19292;DHT22;9779;51.756;7.450;2022-08-19T10:50:33;25.40;99.90
19292;DHT22;9779;51.756;7.450;2022-08-19T10:53:17;25.40;99.90
19292;DHT22;9779;51.756;7.450;2022-08-19T10:55:45;25.40;99.90
19292;DHT22;9779;51.756;7.450;2022-08-19T10:58:29;25.40;99.90
19292;DHT22;9779;51.756;7.450;2022-08-19T11:00:57;25.50;99.90
19292;DHT22;9779;51.756;7.450;2022-08-19T11:03:25;25.90;99.90
19292;DHT22;9779;51.756;7.450;2022-08-19T11:06:02;25.80;99.90
19292;DHT22;9779;51.756;7.450;2022-08-19T11:08:28;25.60;99.90
19292;DHT22;9779;51.756;7.450;2022-08-19T11:10:58;25.40;99.90
19292;DHT22;9779;51.756;7.450;2022-08-19T11:13:30;25.40;99.90
19292;DHT22;9779;51.756;7.450;2022-08-19T11:16:03;25.70;99.90
19292;DHT22;9779;51.756;7.450;2022-08-19T11:18:29;25.90;99.90
19292;DHT22;9779;51.756;7.450;2022-08-19T11:20:54;26.20;99.90
19292;DHT22;9779;51.756;7.450;2022-08-19T11:23:20;26.20;99.90
19292;DHT22;9779;51.756;7.450;2022-08-19T11:25:46;26.30;99.90
19292;DHT22;9779;51.756;7.450;2022-08-19T11:28:12;26.60;99.90
19292;DHT22;9779;51.756;7.450;2022-08-19T11:30:39;26.30;99.90
19292;DHT22;9779;51.756;7.450;2022-08-19T11:33:04;26.30;99.90
19292;DHT22;9779;51.756;7.450;2022-08-19T11:35:30;26.20;99.90
19292;DHT22;9779;51.756;7.450;2022-08-19T11:37:56;26.10;99.90
19292;DHT22;9779;51.756;7.450;2022-08-19T11:40:27;25.90;99.90
19292;DHT22;9779;51.756;7.450;2022-08-19T11:42:52;25.80;99.90
19292;DHT22;9779;51.756;7.450;2022-08-19T11:45:23;25.80;99.90
19292;DHT22;9779;51.756;7.450;2022-08-19T11:47:49;26.00;99.90
19292;DHT22;9779;51.756;7.450;2022-08-19T11:50:16;26.10;99.90
19292;DHT22;9779;51.756;7.450;2022-08-19T11:52:42;26.40;99.90
19292;DHT22;9779;51.756;7.450;2022-08-19T11:55:09;26.70;99.90
19292;DHT22;9779;51.756;7.450;2022-08-19T11:57:35;27.20;99.90
19292;DHT22;9779;51.756;7.450;2022-08-19T12:00:00;27.30;99.90
19292;DHT22;9779;51.756;7.450;2022-08-19T12:02:26;27.40;99.90
19292;DHT22;9779;51.756;7.450;2022-08-19T12:04:52;27.20;99.90
19292;DHT22;9779;51.756;7.450;2022-08-19T12:07:18;26.90;99.90
19292;DHT22;9779;51.756;7.450;2022-08-19T12:09:43;26.90;99.90
19292;DHT22;9779;51.756;7.450;2022-08-19T12:12:09;26.80;99.90
19292;DHT22;9779;51.756;7.450;2022-08-19T12:14:35;26.60;99.90
19292;DHT22;9779;51.756;7.450;2022-08-19T12:17:01;26.60;99.90
19292;DHT22;9779;51.756;7.450;2022-08-19T12:19:29;26.70;99.90
19292;DHT22;9779;51.756;7.450;2022-08-19T12:21:59;27.10;99.90
19292;DHT22;9779;51.756;7.450;2022-08-19T12:24:26;27.30;99.90
19292;DHT22;9779;51.756;7.450;2022-08-19T12:26:52;27.50;99.90
19292;DHT22;9779;51.756;7.450;2022-08-19T12:29:21;27.70;99.90
19292;DHT22;9779;51.756;7.450;2022-08-19T12:31:46;27.80;99.90
19292;DHT22;9779;51.756;7.450;2022-08-19T12:34:12;28.10;99.90
19292;DHT22;9779;51.756;7.450;2022-08-19T12:36:38;28.40;99.90
19292;DHT22;9779;51.756;7.450;2022-08-19T12:39:03;28.90;99.90
19292;DHT22;9779;51.756;7.450;2022-08-19T12:41:29;28.50;98.80
19292;DHT22;9779;51.756;7.450;2022-08-19T12:43:55;28.10;98.20
19292;DHT22;9779;51.756;7.450;2022-08-19T12:46:20;28.00;98.20
19292;DHT22;9779;51.756;7.450;2022-08-19T12:48:46;27.90;98.10
19292;DHT22;9779;51.756;7.450;2022-08-19T12:51:15;27.90;97.90
19292;DHT22;9779;51.756;7.450;2022-08-19T12:53:41;28.10;98.40
19292;DHT22;9779;51.756;7.450;2022-08-19T12:56:08;28.30;96.40
19292;DHT22;9779;51.756;7.450;2022-08-19T12:58:34;28.50;95.70
19292;DHT22;9779;51.756;7.450;2022-08-19T13:01:06;28.40;94.70
19292;DHT22;9779;51.756;7.450;2022-08-19T13:03:32;28.90;96.30
19292;DHT22;9779;51.756;7.450;2022-08-19T13:05:58;29.20;94.70
19292;DHT22;9779;51.756;7.450;2022-08-19T13:08:24;29.10;93.60
19292;DHT22;9779;51.756;7.450;2022-08-19T13:10:49;28.80;95.00
19292;DHT22;9779;51.756;7.450;2022-08-19T13:13:16;28.50;94.80
19292;DHT22;9779;51.756;7.450;2022-08-19T13:15:42;28.30;95.10
19292;DHT22;9779;51.756;7.450;2022-08-19T13:18:11;28.20;95.90
19292;DHT22;9779;51.756;7.450;2022-08-19T13:20:38;28.40;95.70
19292;DHT22;9779;51.756;7.450;2022-08-19T13:23:06;28.70;94.30
19292;DHT22;9779;51.756;7.450;2022-08-19T13:25:32;29.10;94.40
19292;DHT22;9779;51.756;7.450;2022-08-19T13:27:58;29.00;94.70
19292;DHT22;9779;51.756;7.450;2022-08-19T13:30:24;28.70;94.50
19292;DHT22;9779;51.756;7.450;2022-08-19T13:33:16;28.50;95.20
19292;DHT22;9779;51.756;7.450;2022-08-19T13:35:57;28.40;95.90
19292;DHT22;9779;51.756;7.450;2022-08-19T13:38:23;28.40;94.80
19292;DHT22;9779;51.756;7.450;2022-08-19T13:40:50;28.20;95.00
19292;DHT22;9779;51.756;7.450;2022-08-19T13:43:18;28.20;96.10
19292;DHT22;9779;51.756;7.450;2022-08-19T13:45:45;28.20;96.30
19292;DHT22;9779;51.756;7.450;2022-08-19T13:48:10;27.90;95.60
19292;DHT22;9779;51.756;7.450;2022-08-19T13:50:43;27.90;96.20
19292;DHT22;9779;51.756;7.450;2022-08-19T13:53:10;27.80;95.90
19292;DHT22;9779;51.756;7.450;2022-08-19T13:55:41;28.00;94.80
19292;DHT22;9779;51.756;7.450;2022-08-19T13:58:07;28.10;95.10
19292;DHT22;9779;51.756;7.450;2022-08-19T14:00:36;28.20;94.70
19292;DHT22;9779;51.756;7.450;2022-08-19T14:03:03;28.50;95.00
19292;DHT22;9779;51.756;7.450;2022-08-19T14:05:30;28.80;93.70
19292;DHT22;9779;51.756;7.450;2022-08-19T14:07:56;29.00;92.90
19292;DHT22;9779;51.756;7.450;2022-08-19T14:10:23;29.10;92.40
19292;DHT22;9779;51.756;7.450;2022-08-19T14:12:52;29.00;91.70
19292;DHT22;9779;51.756;7.450;2022-08-19T14:15:18;28.70;91.50
19292;DHT22;9779;51.756;7.450;2022-08-19T14:17:45;28.60;92.40
19292;DHT22;9779;51.756;7.450;2022-08-19T14:20:14;28.50;92.30
19292;DHT22;9779;51.756;7.450;2022-08-19T14:22:42;28.90;92.90
19292;DHT22;9779;51.756;7.450;2022-08-19T14:25:11;29.20;90.40
19292;DHT22;9779;51.756;7.450;2022-08-19T14:27:38;29.40;90.30
19292;DHT22;9779;51.756;7.450;2022-08-19T14:30:06;29.50;90.10
19292;DHT22;9779;51.756;7.450;2022-08-19T14:32:33;29.40;88.40
19292;DHT22;9779;51.756;7.450;2022-08-19T14:35:01;29.20;87.50
19292;DHT22;9779;51.756;7.450;2022-08-19T14:37:26;29.20;88.30
19292;DHT22;9779;51.756;7.450;2022-08-19T14:39:52;29.20;87.50
19292;DHT22;9779;51.756;7.450;2022-08-19T14:42:18;29.10;88.80
19292;DHT22;9779;51.756;7.450;2022-08-19T14:44:44;28.80;87.10
19292;DHT22;9779;51.756;7.450;2022-08-19T14:47:10;28.70;89.00
19292;DHT22;9779;51.756;7.450;2022-08-19T14:49:36;28.60;89.50
19292;DHT22;9779;51.756;7.450;2022-08-19T14:52:03;28.50;90.50
19292;DHT22;9779;51.756;7.450;2022-08-19T14:54:29;28.50;90.50
19292;DHT22;9779;51.756;7.450;2022-08-19T14:56:54;28.60;91.00
19292;DHT22;9779;51.756;7.450;2022-08-19T14:59:20;28.90;90.40
19292;DHT22;9779;51.756;7.450;2022-08-19T15:01:46;29.40;90.30
19292;DHT22;9779;51.756;7.450;2022-08-19T15:04:12;29.30;86.70
19292;DHT22;9779;51.756;7.450;2022-08-19T15:06:37;29.20;86.40
19292;DHT22;9779;51.756;7.450;2022-08-19T15:09:03;29.60;87.90
19292;DHT22;9779;51.756;7.450;2022-08-19T15:11:29;30.10;84.90
19292;DHT22;9779;51.756;7.450;2022-08-19T15:13:58;30.00;83.30
19292;DHT22;9779;51.756;7.450;2022-08-19T15:16:24;29.90;82.00
19292;DHT22;9779;51.756;7.450;2022-08-19T15:18:53;29.70;82.70
19292;DHT22;9779;51.756;7.450;2022-08-19T15:21:19;29.40;83.00
19292;DHT22;9779;51.756;7.450;2022-08-19T15:23:46;29.30;84.20
19292;DHT22;9779;51.756;7.450;2022-08-19T15:26:14;29.20;83.80
19292;DHT22;9779;51.756;7.450;2022-08-19T15:28:40;29.10;83.40
19292;DHT22;9779;51.756;7.450;2022-08-19T15:31:05;28.90;83.10
19292;DHT22;9779;51.756;7.450;2022-08-19T15:33:35;28.90;85.00
19292;DHT22;9779;51.756;7.450;2022-08-19T15:36:10;28.80;85.20
19292;DHT22;9779;51.756;7.450;2022-08-19T15:38:38;28.70;85.40
19292;DHT22;9779;51.756;7.450;2022-08-19T15:41:19;28.70;85.30
19292;DHT22;9779;51.756;7.450;2022-08-19T15:43:50;28.60;86.00
19292;DHT22;9779;51.756;7.450;2022-08-19T15:46:18;28.60;85.10
19292;DHT22;9779;51.756;7.450;2022-08-19T15:48:44;28.70;86.30
19292;DHT22;9779;51.756;7.450;2022-08-19T15:51:10;28.60;84.90
19292;DHT22;9779;51.756;7.450;2022-08-19T15:53:36;28.40;85.20
19292;DHT22;9779;51.756;7.450;2022-08-19T15:56:02;28.20;86.10
19292;DHT22;9779;51.756;7.450;2022-08-19T15:58:27;28.30;88.00
19292;DHT22;9779;51.756;7.450;2022-08-19T16:01:11;28.30;88.90
19292;DHT22;9779;51.756;7.450;2022-08-19T16:04:12;28.00;89.00
19292;DHT22;9779;51.756;7.450;2022-08-19T16:06:58;28.10;89.30